Terminal Aerodrome Forecast
Issued by NWS

Home | Current Version | Previous Version | Text Only | Print | Product List | Glossary On
Versions: 1 2 3 4 5 6 7 8 9 10 11 12 13 14 15 16 17 18 19
452
FTUS46 KEKA 130119 AAA
TAFCEC
TAF AMD
KCEC 130119Z 1301/1324 12003KT 6SM BR SCT050
      TEMPO 1301/1303 5SM BR
     FM130300 07003KT 5SM BR SCT004 BKN015
     FM130600 VRB03KT 3SM BR SCT002
     FM131600 VRB03KT P6SM SCT250=

USA.gov is the U.S. government's official web portal to all federal, state and local government web resources and services.